sensor_id;sensor_type;location;lat;lon;timestamp;pressure;altitude;pressure_sealevel;temperature;humidity
12636;BME280;6383;50.830;7.210;2022-07-24T00:02:04;101199.31;;;22.47;58.27
12636;BME280;6383;50.830;7.210;2022-07-24T00:04:32;101207.63;;;22.47;58.83
12636;BME280;6383;50.830;7.210;2022-07-24T00:07:00;101209.16;;;22.45;58.63
12636;BME280;6383;50.830;7.210;2022-07-24T00:09:29;101205.59;;;22.44;58.78
12636;BME280;6383;50.830;7.210;2022-07-24T00:11:58;101214.63;;;22.41;58.85
12636;BME280;6383;50.830;7.210;2022-07-24T00:14:26;101208.94;;;22.34;59.35
12636;BME280;6383;50.830;7.210;2022-07-24T00:16:54;101208.06;;;22.30;59.89
12636;BME280;6383;50.830;7.210;2022-07-24T00:19:22;101210.75;;;22.27;59.83
12636;BME280;6383;50.830;7.210;2022-07-24T00:21:50;101211.06;;;22.22;60.11
12636;BME280;6383;50.830;7.210;2022-07-24T00:24:18;101210.97;;;22.18;60.30
12636;BME280;6383;50.830;7.210;2022-07-24T00:26:47;101207.75;;;22.16;60.04
12636;BME280;6383;50.830;7.210;2022-07-24T00:29:16;101208.91;;;22.15;60.62
12636;BME280;6383;50.830;7.210;2022-07-24T00:31:44;101210.91;;;22.14;59.65
12636;BME280;6383;50.830;7.210;2022-07-24T00:34:12;101209.66;;;22.12;59.25
12636;BME280;6383;50.830;7.210;2022-07-24T00:36:40;101212.81;;;22.10;59.70
12636;BME280;6383;50.830;7.210;2022-07-24T00:39:10;101212.72;;;22.07;59.51
12636;BME280;6383;50.830;7.210;2022-07-24T00:41:38;101205.94;;;22.04;59.67
12636;BME280;6383;50.830;7.210;2022-07-24T00:44:09;101205.03;;;22.00;59.89
12636;BME280;6383;50.830;7.210;2022-07-24T00:46:40;101210.09;;;21.98;60.02
12636;BME280;6383;50.830;7.210;2022-07-24T00:49:09;101204.50;;;21.95;59.58
12636;BME280;6383;50.830;7.210;2022-07-24T00:51:40;101200.47;;;21.92;59.50
12636;BME280;6383;50.830;7.210;2022-07-24T00:54:09;101206.03;;;21.92;60.27
12636;BME280;6383;50.830;7.210;2022-07-24T00:56:38;101204.41;;;21.91;60.36
12636;BME280;6383;50.830;7.210;2022-07-24T00:59:10;101204.31;;;21.88;60.23
12636;BME280;6383;50.830;7.210;2022-07-24T01:01:38;101205.03;;;21.85;60.08
12636;BME280;6383;50.830;7.210;2022-07-24T01:04:06;101205.41;;;21.83;60.15
12636;BME280;6383;50.830;7.210;2022-07-24T01:06:34;101199.34;;;21.77;59.70
12636;BME280;6383;50.830;7.210;2022-07-24T01:09:03;101202.38;;;21.72;60.16
12636;BME280;6383;50.830;7.210;2022-07-24T01:11:32;101198.00;;;21.71;59.78
12636;BME280;6383;50.830;7.210;2022-07-24T01:14:00;101203.47;;;21.68;59.88
12636;BME280;6383;50.830;7.210;2022-07-24T01:16:29;101205.81;;;21.66;59.71
12636;BME280;6383;50.830;7.210;2022-07-24T01:18:58;101196.25;;;21.63;60.25
12636;BME280;6383;50.830;7.210;2022-07-24T01:21:27;101200.19;;;21.62;60.74
12636;BME280;6383;50.830;7.210;2022-07-24T01:23:56;101199.38;;;21.62;60.75
12636;BME280;6383;50.830;7.210;2022-07-24T01:26:24;101204.91;;;21.62;60.55
12636;BME280;6383;50.830;7.210;2022-07-24T01:28:52;101202.88;;;21.59;60.53
12636;BME280;6383;50.830;7.210;2022-07-24T01:31:21;101206.00;;;21.57;60.44
12636;BME280;6383;50.830;7.210;2022-07-24T01:33:49;101205.91;;;21.54;59.80
12636;BME280;6383;50.830;7.210;2022-07-24T01:36:16;101211.78;;;21.52;60.02
12636;BME280;6383;50.830;7.210;2022-07-24T01:38:47;101208.59;;;21.50;60.36
12636;BME280;6383;50.830;7.210;2022-07-24T01:41:15;101200.19;;;21.46;60.75
12636;BME280;6383;50.830;7.210;2022-07-24T01:43:43;101205.28;;;21.44;60.50
12636;BME280;6383;50.830;7.210;2022-07-24T01:46:13;101209.56;;;21.42;60.92
12636;BME280;6383;50.830;7.210;2022-07-24T01:48:42;101209.13;;;21.40;60.94
12636;BME280;6383;50.830;7.210;2022-07-24T01:51:11;101205.47;;;21.36;61.05
12636;BME280;6383;50.830;7.210;2022-07-24T01:53:39;101213.41;;;21.37;61.26
12636;BME280;6383;50.830;7.210;2022-07-24T01:56:07;101199.13;;;21.35;61.30
12636;BME280;6383;50.830;7.210;2022-07-24T01:58:36;101202.31;;;21.37;61.08
12636;BME280;6383;50.830;7.210;2022-07-24T02:01:06;101201.91;;;21.35;61.34
12636;BME280;6383;50.830;7.210;2022-07-24T02:03:35;101203.06;;;21.34;61.19
12636;BME280;6383;50.830;7.210;2022-07-24T02:06:03;101189.56;;;21.33;60.77
12636;BME280;6383;50.830;7.210;2022-07-24T02:08:31;101187.16;;;21.31;61.25
12636;BME280;6383;50.830;7.210;2022-07-24T02:10:59;101192.69;;;21.31;61.49
12636;BME280;6383;50.830;7.210;2022-07-24T02:13:28;101194.31;;;21.32;60.79
12636;BME280;6383;50.830;7.210;2022-07-24T02:15:56;101192.69;;;21.31;60.92
12636;BME280;6383;50.830;7.210;2022-07-24T02:18:25;101191.09;;;21.30;61.25
12636;BME280;6383;50.830;7.210;2022-07-24T02:20:54;101187.88;;;21.28;60.90
12636;BME280;6383;50.830;7.210;2022-07-24T02:23:23;101198.16;;;21.28;61.19
12636;BME280;6383;50.830;7.210;2022-07-24T02:25:52;101200.91;;;21.28;61.68
12636;BME280;6383;50.830;7.210;2022-07-24T02:28:20;101194.13;;;21.25;61.54
12636;BME280;6383;50.830;7.210;2022-07-24T02:30:50;101194.56;;;21.27;61.61
12636;BME280;6383;50.830;7.210;2022-07-24T02:33:18;101185.81;;;21.25;61.15
12636;BME280;6383;50.830;7.210;2022-07-24T02:35:46;101194.41;;;21.20;61.35
12636;BME280;6383;50.830;7.210;2022-07-24T02:38:14;101199.00;;;21.16;61.78
12636;BME280;6383;50.830;7.210;2022-07-24T02:40:42;101191.88;;;21.15;61.74
12636;BME280;6383;50.830;7.210;2022-07-24T02:43:10;101187.84;;;21.12;61.97
12636;BME280;6383;50.830;7.210;2022-07-24T02:45:38;101191.75;;;21.11;61.66
12636;BME280;6383;50.830;7.210;2022-07-24T02:48:08;101188.19;;;21.11;62.05
12636;BME280;6383;50.830;7.210;2022-07-24T02:50:36;101188.53;;;21.09;62.18
12636;BME280;6383;50.830;7.210;2022-07-24T02:53:06;101194.06;;;21.09;61.95
12636;BME280;6383;50.830;7.210;2022-07-24T02:55:34;101186.94;;;21.08;61.73
12636;BME280;6383;50.830;7.210;2022-07-24T02:58:02;101188.47;;;21.06;61.88
12636;BME280;6383;50.830;7.210;2022-07-24T03:00:30;101189.19;;;21.03;61.81
12636;BME280;6383;50.830;7.210;2022-07-24T03:02:58;101187.47;;;20.98;61.83
12636;BME280;6383;50.830;7.210;2022-07-24T03:05:28;101176.31;;;20.95;61.63
12636;BME280;6383;50.830;7.210;2022-07-24T03:07:56;101184.16;;;20.93;62.70
12636;BME280;6383;50.830;7.210;2022-07-24T03:10:24;101182.91;;;20.90;62.12
12636;BME280;6383;50.830;7.210;2022-07-24T03:12:52;101184.44;;;20.88;62.41
12636;BME280;6383;50.830;7.210;2022-07-24T03:15:20;101182.81;;;20.87;62.87
12636;BME280;6383;50.830;7.210;2022-07-24T03:17:49;101178.44;;;20.86;62.21
12636;BME280;6383;50.830;7.210;2022-07-24T03:20:18;101178.44;;;20.86;63.11
12636;BME280;6383;50.830;7.210;2022-07-24T03:22:48;101181.56;;;20.84;62.99
12636;BME280;6383;50.830;7.210;2022-07-24T03:25:16;101177.19;;;20.83;62.82
12636;BME280;6383;50.830;7.210;2022-07-24T03:27:44;101171.53;;;20.80;63.13
12636;BME280;6383;50.830;7.210;2022-07-24T03:30:12;101175.13;;;20.80;63.35
12636;BME280;6383;50.830;7.210;2022-07-24T03:32:40;101172.69;;;20.78;63.36
12636;BME280;6383;50.830;7.210;2022-07-24T03:35:09;101174.25;;;20.76;63.68
12636;BME280;6383;50.830;7.210;2022-07-24T03:37:36;101184.16;;;20.77;63.49
12636;BME280;6383;50.830;7.210;2022-07-24T03:40:07;101177.34;;;20.74;63.76
12636;BME280;6383;50.830;7.210;2022-07-24T03:42:34;101178.53;;;20.73;63.35
12636;BME280;6383;50.830;7.210;2022-07-24T03:45:03;101173.78;;;20.74;63.26
12636;BME280;6383;50.830;7.210;2022-07-24T03:49:58;101177.25;;;20.71;63.21
12636;BME280;6383;50.830;7.210;2022-07-24T03:52:26;101180.38;;;20.69;63.43
12636;BME280;6383;50.830;7.210;2022-07-24T03:54:55;101174.03;;;20.69;63.33
12636;BME280;6383;50.830;7.210;2022-07-24T03:57:24;101177.16;;;20.67;63.04
12636;BME280;6383;50.830;7.210;2022-07-24T03:59:53;101178.31;;;20.66;63.50
12636;BME280;6383;50.830;7.210;2022-07-24T04:02:22;101180.63;;;20.64;63.78
12636;BME280;6383;50.830;7.210;2022-07-24T04:04:50;101182.22;;;20.65;63.45
12636;BME280;6383;50.830;7.210;2022-07-24T04:07:18;101183.03;;;20.66;63.42
12636;BME280;6383;50.830;7.210;2022-07-24T04:09:46;101186.59;;;20.66;63.78
12636;BME280;6383;50.830;7.210;2022-07-24T04:12:14;101184.66;;;20.67;63.64
12636;BME280;6383;50.830;7.210;2022-07-24T04:14:43;101185.81;;;20.66;63.81
12636;BME280;6383;50.830;7.210;2022-07-24T04:17:12;101190.19;;;20.67;63.92
12636;BME280;6383;50.830;7.210;2022-07-24T04:19:40;101186.59;;;20.66;63.84
12636;BME280;6383;50.830;7.210;2022-07-24T04:22:08;101185.00;;;20.65;63.77
12636;BME280;6383;50.830;7.210;2022-07-24T04:24:36;101192.13;;;20.66;64.49
12636;BME280;6383;50.830;7.210;2022-07-24T04:27:04;101183.50;;;20.68;64.90
12636;BME280;6383;50.830;7.210;2022-07-24T04:29:32;101188.66;;;20.69;64.92
12636;BME280;6383;50.830;7.210;2022-07-24T04:32:01;101184.75;;;20.70;64.65
12636;BME280;6383;50.830;7.210;2022-07-24T04:34:30;101191.09;;;20.71;64.34
12636;BME280;6383;50.830;7.210;2022-07-24T04:36:58;101193.16;;;20.74;65.13
12636;BME280;6383;50.830;7.210;2022-07-24T04:39:26;101186.91;;;20.77;64.98
12636;BME280;6383;50.830;7.210;2022-07-24T04:41:54;101189.31;;;20.78;65.38
12636;BME280;6383;50.830;7.210;2022-07-24T04:44:22;101191.72;;;20.80;65.14
12636;BME280;6383;50.830;7.210;2022-07-24T04:46:50;101181.56;;;20.84;64.88
12636;BME280;6383;50.830;7.210;2022-07-24T04:49:19;101184.44;;;20.88;64.48
12636;BME280;6383;50.830;7.210;2022-07-24T04:51:48;101184.97;;;20.93;64.96
12636;BME280;6383;50.830;7.210;2022-07-24T04:54:16;101188.63;;;20.97;64.29
12636;BME280;6383;50.830;7.210;2022-07-24T04:56:44;101184.00;;;21.01;64.55
12636;BME280;6383;50.830;7.210;2022-07-24T04:59:12;101180.88;;;21.03;63.94
12636;BME280;6383;50.830;7.210;2022-07-24T05:01:40;101185.72;;;21.06;63.98
12636;BME280;6383;50.830;7.210;2022-07-24T05:04:08;101189.69;;;21.08;63.42
12636;BME280;6383;50.830;7.210;2022-07-24T05:06:37;101190.16;;;21.10;63.79
12636;BME280;6383;50.830;7.210;2022-07-24T05:09:06;101187.47;;;21.14;64.32
12636;BME280;6383;50.830;7.210;2022-07-24T05:11:34;101183.56;;;21.15;65.19
12636;BME280;6383;50.830;7.210;2022-07-24T05:14:02;101188.88;;;21.20;64.02
12636;BME280;6383;50.830;7.210;2022-07-24T05:16:30;101185.75;;;21.22;64.64
12636;BME280;6383;50.830;7.210;2022-07-24T05:18:58;101183.41;;;21.24;63.83
12636;BME280;6383;50.830;7.210;2022-07-24T05:21:26;101185.91;;;21.29;63.62
12636;BME280;6383;50.830;7.210;2022-07-24T05:23:55;101187.97;;;21.32;64.34
12636;BME280;6383;50.830;7.210;2022-07-24T05:26:24;101187.25;;;21.35;nan
12636;BME280;6383;50.830;7.210;2022-07-24T05:28:52;101181.78;;;21.38;64.17
12636;BME280;6383;50.830;7.210;2022-07-24T05:31:20;101182.69;;;21.42;64.14
12636;BME280;6383;50.830;7.210;2022-07-24T05:33:48;101180.00;;;21.46;64.22
12636;BME280;6383;50.830;7.210;2022-07-24T05:36:16;101182.88;;;21.50;63.47
12636;BME280;6383;50.830;7.210;2022-07-24T05:38:44;101183.72;;;21.54;63.16
12636;BME280;6383;50.830;7.210;2022-07-24T05:41:14;101185.78;;;21.57;62.96
12636;BME280;6383;50.830;7.210;2022-07-24T05:43:43;101175.59;;;21.61;62.75
12636;BME280;6383;50.830;7.210;2022-07-24T05:46:11;101176.16;;;21.66;63.04
12636;BME280;6383;50.830;7.210;2022-07-24T05:48:39;101180.59;;;21.71;63.07
12636;BME280;6383;50.830;7.210;2022-07-24T05:51:07;101174.31;;;21.74;63.06
12636;BME280;6383;50.830;7.210;2022-07-24T05:53:35;101172.91;;;21.80;62.98
12636;BME280;6383;50.830;7.210;2022-07-24T05:56:04;101162.66;;;21.84;62.26
12636;BME280;6383;50.830;7.210;2022-07-24T05:58:34;101174.28;;;21.90;62.55
12636;BME280;6383;50.830;7.210;2022-07-24T06:01:03;101166.50;;;21.95;62.31
12636;BME280;6383;50.830;7.210;2022-07-24T06:03:30;101170.59;;;22.01;62.36
12636;BME280;6383;50.830;7.210;2022-07-24T06:05:58;101171.94;;;22.07;62.32
12636;BME280;6383;50.830;7.210;2022-07-24T06:08:26;101180.75;;;22.13;61.32
12636;BME280;6383;50.830;7.210;2022-07-24T06:10:55;101180.91;;;22.20;62.43
12636;BME280;6383;50.830;7.210;2022-07-24T06:13:22;101179.44;;;22.26;60.69
12636;BME280;6383;50.830;7.210;2022-07-24T06:15:52;101177.19;;;22.32;61.82
12636;BME280;6383;50.830;7.210;2022-07-24T06:18:20;101172.97;;;22.38;60.85
12636;BME280;6383;50.830;7.210;2022-07-24T06:20:48;101167.91;;;22.43;61.21
12636;BME280;6383;50.830;7.210;2022-07-24T06:23:16;101172.00;;;22.49;60.29
12636;BME280;6383;50.830;7.210;2022-07-24T06:25:44;101176.88;;;22.56;60.15
12636;BME280;6383;50.830;7.210;2022-07-24T06:28:12;101173.94;;;21.91;61.21
12636;BME280;6383;50.830;7.210;2022-07-24T06:30:40;101170.34;;;21.56;62.25
12636;BME280;6383;50.830;7.210;2022-07-24T06:33:10;101166.63;;;21.32;62.93
12636;BME280;6383;50.830;7.210;2022-07-24T06:35:37;101168.91;;;21.15;63.66
12636;BME280;6383;50.830;7.210;2022-07-24T06:38:06;101182.03;;;21.02;63.94
12636;BME280;6383;50.830;7.210;2022-07-24T06:40:34;101171.84;;;20.90;64.40
12636;BME280;6383;50.830;7.210;2022-07-24T06:43:02;101178.78;;;20.84;64.81
12636;BME280;6383;50.830;7.210;2022-07-24T06:45:30;101171.91;;;20.78;64.95
12636;BME280;6383;50.830;7.210;2022-07-24T06:47:59;101168.25;;;20.74;65.77
12636;BME280;6383;50.830;7.210;2022-07-24T06:50:28;101172.19;;;20.73;65.69
12636;BME280;6383;50.830;7.210;2022-07-24T06:52:56;101160.66;;;20.71;65.48
12636;BME280;6383;50.830;7.210;2022-07-24T06:55:24;101174.13;;;20.72;65.76
12636;BME280;6383;50.830;7.210;2022-07-24T06:57:52;101166.66;;;20.73;65.81
12636;BME280;6383;50.830;7.210;2022-07-24T07:00:20;101167.91;;;20.75;66.46
12636;BME280;6383;50.830;7.210;2022-07-24T07:02:48;101165.22;;;20.79;66.15
12636;BME280;6383;50.830;7.210;2022-07-24T07:05:16;101172.00;;;20.82;66.75
12636;BME280;6383;50.830;7.210;2022-07-24T07:07:45;101170.94;;;20.86;66.65
12636;BME280;6383;50.830;7.210;2022-07-24T07:10:14;101168.63;;;20.88;67.09
12636;BME280;6383;50.830;7.210;2022-07-24T07:12:42;101176.31;;;20.95;66.76
12636;BME280;6383;50.830;7.210;2022-07-24T07:15:10;101169.25;;;20.97;66.93
12636;BME280;6383;50.830;7.210;2022-07-24T07:17:40;101167.03;;;21.03;67.02
12636;BME280;6383;50.830;7.210;2022-07-24T07:20:09;101170.72;;;21.07;67.14
12636;BME280;6383;50.830;7.210;2022-07-24T07:22:38;101168.09;;;21.14;67.09
12636;BME280;6383;50.830;7.210;2022-07-24T07:25:09;101173.56;;;21.42;67.00
12636;BME280;6383;50.830;7.210;2022-07-24T07:27:37;101168.72;;;21.55;65.92
12636;BME280;6383;50.830;7.210;2022-07-24T07:30:06;101165.84;;;21.67;66.36
12636;BME280;6383;50.830;7.210;2022-07-24T07:32:35;101172.81;;;21.76;66.53
12636;BME280;6383;50.830;7.210;2022-07-24T07:35:04;101173.03;;;21.87;65.62
12636;BME280;6383;50.830;7.210;2022-07-24T07:37:31;101164.09;;;21.94;65.06
12636;BME280;6383;50.830;7.210;2022-07-24T07:40:00;101167.47;;;22.03;65.10
12636;BME280;6383;50.830;7.210;2022-07-24T07:42:32;101167.25;;;22.11;63.92
12636;BME280;6383;50.830;7.210;2022-07-24T07:45:00;101171.34;;;22.17;64.38
12636;BME280;6383;50.830;7.210;2022-07-24T07:47:29;101174.28;;;22.25;64.17
12636;BME280;6383;50.830;7.210;2022-07-24T07:49:57;101172.44;;;22.32;63.87
12636;BME280;6383;50.830;7.210;2022-07-24T07:52:26;101171.44;;;22.40;63.99
12636;BME280;6383;50.830;7.210;2022-07-24T07:54:57;101169.59;;;22.48;63.74
12636;BME280;6383;50.830;7.210;2022-07-24T07:57:24;101157.47;;;22.56;63.18
12636;BME280;6383;50.830;7.210;2022-07-24T07:59:54;101160.38;;;22.63;64.27
12636;BME280;6383;50.830;7.210;2022-07-24T08:02:25;101163.31;;;22.70;63.59
12636;BME280;6383;50.830;7.210;2022-07-24T08:05:04;101159.88;;;22.77;63.46
12636;BME280;6383;50.830;7.210;2022-07-24T08:07:55;101159.22;;;22.83;63.29
12636;BME280;6383;50.830;7.210;2022-07-24T08:10:45;101159.75;;;22.93;63.77
12636;BME280;6383;50.830;7.210;2022-07-24T08:13:26;101157.50;;;22.98;64.85
12636;BME280;6383;50.830;7.210;2022-07-24T08:16:09;101151.69;;;23.07;63.09
12636;BME280;6383;50.830;7.210;2022-07-24T08:18:47;101153.00;;;23.13;63.36
12636;BME280;6383;50.830;7.210;2022-07-24T08:21:24;101152.28;;;23.19;62.97
12636;BME280;6383;50.830;7.210;2022-07-24T08:23:54;101148.84;;;23.26;63.15
12636;BME280;6383;50.830;7.210;2022-07-24T08:26:22;101150.09;;;23.32;62.96
12636;BME280;6383;50.830;7.210;2022-07-24T08:28:51;101149.06;;;23.40;62.48
12636;BME280;6383;50.830;7.210;2022-07-24T08:31:21;101149.94;;;23.44;62.54
12636;BME280;6383;50.830;7.210;2022-07-24T08:33:49;101142.84;;;23.50;61.64
12636;BME280;6383;50.830;7.210;2022-07-24T08:36:18;101139.00;;;23.55;62.53
12636;BME280;6383;50.830;7.210;2022-07-24T08:38:47;101140.25;;;23.61;60.52
12636;BME280;6383;50.830;7.210;2022-07-24T08:41:16;101143.16;;;23.68;61.22
12636;BME280;6383;50.830;7.210;2022-07-24T08:43:46;101143.25;;;23.75;61.05
12636;BME280;6383;50.830;7.210;2022-07-24T08:46:15;101138.97;;;23.81;59.99
12636;BME280;6383;50.830;7.210;2022-07-24T08:48:46;101139.09;;;23.88;60.05
12636;BME280;6383;50.830;7.210;2022-07-24T08:51:15;101140.72;;;23.93;58.69
12636;BME280;6383;50.830;7.210;2022-07-24T08:53:43;101138.84;;;24.01;59.18
12636;BME280;6383;50.830;7.210;2022-07-24T08:56:11;101131.31;;;24.05;58.41
12636;BME280;6383;50.830;7.210;2022-07-24T08:58:40;101129.81;;;24.11;57.62
12636;BME280;6383;50.830;7.210;2022-07-24T09:01:09;101128.31;;;24.17;57.59
12636;BME280;6383;50.830;7.210;2022-07-24T09:03:45;101125.63;;;24.24;57.94
12636;BME280;6383;50.830;7.210;2022-07-24T09:06:14;101122.97;;;24.35;56.83
12636;BME280;6383;50.830;7.210;2022-07-24T09:08:56;101114.28;;;24.40;55.45
12636;BME280;6383;50.830;7.210;2022-07-24T09:11:25;101125.94;;;24.52;54.55
12636;BME280;6383;50.830;7.210;2022-07-24T09:13:59;101134.00;;;24.61;53.74
12636;BME280;6383;50.830;7.210;2022-07-24T09:16:45;101130.91;;;24.70;52.36
12636;BME280;6383;50.830;7.210;2022-07-24T09:19:15;101125.41;;;24.77;52.42
12636;BME280;6383;50.830;7.210;2022-07-24T09:21:44;101113.91;;;24.82;52.02
12636;BME280;6383;50.830;7.210;2022-07-24T09:24:18;101107.63;;;24.88;50.82
12636;BME280;6383;50.830;7.210;2022-07-24T09:26:49;101102.09;;;24.92;51.27
12636;BME280;6383;50.830;7.210;2022-07-24T09:29:23;101108.53;;;25.00;51.56
12636;BME280;6383;50.830;7.210;2022-07-24T09:31:53;101108.19;;;25.05;50.90
12636;BME280;6383;50.830;7.210;2022-07-24T09:34:23;101101.06;;;25.07;50.38
12636;BME280;6383;50.830;7.210;2022-07-24T09:36:58;101105.03;;;25.10;51.36
12636;BME280;6383;50.830;7.210;2022-07-24T09:39:29;101100.72;;;25.16;50.51
12636;BME280;6383;50.830;7.210;2022-07-24T09:42:00;101096.78;;;25.20;50.48
12636;BME280;6383;50.830;7.210;2022-07-24T09:44:29;101092.81;;;25.25;50.53
12636;BME280;6383;50.830;7.210;2022-07-24T09:47:00;101091.66;;;25.29;50.27
12636;BME280;6383;50.830;7.210;2022-07-24T09:49:30;101088.50;;;25.35;50.93
12636;BME280;6383;50.830;7.210;2022-07-24T09:52:13;101080.16;;;25.35;50.15
12636;BME280;6383;50.830;7.210;2022-07-24T09:54:43;101074.59;;;25.42;50.94
12636;BME280;6383;50.830;7.210;2022-07-24T09:57:18;101075.47;;;25.49;50.84
12636;BME280;6383;50.830;7.210;2022-07-24T09:59:49;101076.69;;;25.55;49.60
12636;BME280;6383;50.830;7.210;2022-07-24T10:02:18;101066.41;;;25.63;49.00
12636;BME280;6383;50.830;7.210;2022-07-24T10:04:52;101073.56;;;25.68;48.41
12636;BME280;6383;50.830;7.210;2022-07-24T10:07:22;101062.09;;;25.76;47.95
12636;BME280;6383;50.830;7.210;2022-07-24T10:09:53;101064.13;;;25.86;48.28
12636;BME280;6383;50.830;7.210;2022-07-24T10:12:24;101068.53;;;25.98;47.12
12636;BME280;6383;50.830;7.210;2022-07-24T10:14:55;101065.00;;;26.08;47.74
12636;BME280;6383;50.830;7.210;2022-07-24T10:17:30;101064.22;;;26.15;47.06
12636;BME280;6383;50.830;7.210;2022-07-24T10:20:05;101063.06;;;26.23;47.00
12636;BME280;6383;50.830;7.210;2022-07-24T10:22:41;101065.88;;;26.30;45.43
12636;BME280;6383;50.830;7.210;2022-07-24T10:25:13;101058.31;;;26.38;46.51
12636;BME280;6383;50.830;7.210;2022-07-24T10:27:50;101061.91;;;26.45;47.01
12636;BME280;6383;50.830;7.210;2022-07-24T10:30:19;101062.75;;;26.53;46.23
12636;BME280;6383;50.830;7.210;2022-07-24T10:32:48;101056.75;;;26.58;45.43
12636;BME280;6383;50.830;7.210;2022-07-24T10:35:19;101055.16;;;26.60;46.16
12636;BME280;6383;50.830;7.210;2022-07-24T10:37:55;101053.56;;;26.63;45.25
12636;BME280;6383;50.830;7.210;2022-07-24T10:40:30;101052.78;;;26.66;45.57
12636;BME280;6383;50.830;7.210;2022-07-24T10:43:12;101057.56;;;26.69;46.46
12636;BME280;6383;50.830;7.210;2022-07-24T10:45:42;101037.59;;;26.74;45.44
12636;BME280;6383;50.830;7.210;2022-07-24T10:48:30;101034.41;;;26.72;46.26
12636;BME280;6383;50.830;7.210;2022-07-24T10:51:04;101036.41;;;26.79;46.67
12636;BME280;6383;50.830;7.210;2022-07-24T10:53:46;101034.81;;;26.81;45.87
12636;BME280;6383;50.830;7.210;2022-07-24T10:56:19;101028.03;;;26.86;44.54
12636;BME280;6383;50.830;7.210;2022-07-24T10:58:58;101025.25;;;26.86;44.88
12636;BME280;6383;50.830;7.210;2022-07-24T11:01:29;101024.88;;;26.94;45.88
12636;BME280;6383;50.830;7.210;2022-07-24T11:03:59;101018.47;;;26.97;44.90
12636;BME280;6383;50.830;7.210;2022-07-24T11:06:43;101014.88;;;26.97;46.15
12636;BME280;6383;50.830;7.210;2022-07-24T11:09:11;101012.06;;;27.08;44.77
12636;BME280;6383;50.830;7.210;2022-07-24T11:11:42;101010.88;;;27.16;44.17
12636;BME280;6383;50.830;7.210;2022-07-24T11:14:10;101010.84;;;27.23;44.25
12636;BME280;6383;50.830;7.210;2022-07-24T11:16:38;101010.44;;;27.28;43.99
12636;BME280;6383;50.830;7.210;2022-07-24T11:19:28;101005.25;;;27.26;44.43
12636;BME280;6383;50.830;7.210;2022-07-24T11:22:06;100991.25;;;27.30;44.10
12636;BME280;6383;50.830;7.210;2022-07-24T11:24:34;100996.81;;;27.37;43.66
12636;BME280;6383;50.830;7.210;2022-07-24T11:27:07;100995.22;;;27.43;43.93
12636;BME280;6383;50.830;7.210;2022-07-24T11:29:37;100988.38;;;27.51;43.83
12636;BME280;6383;50.830;7.210;2022-07-24T11:32:06;100995.94;;;27.61;43.56
12636;BME280;6383;50.830;7.210;2022-07-24T11:34:35;100993.53;;;27.70;43.21
12636;BME280;6383;50.830;7.210;2022-07-24T11:37:05;100983.09;;;27.78;43.08
12636;BME280;6383;50.830;7.210;2022-07-24T11:39:36;100979.88;;;27.83;41.88
12636;BME280;6383;50.830;7.210;2022-07-24T11:42:06;100973.47;;;27.86;41.22
12636;BME280;6383;50.830;7.210;2022-07-24T11:44:36;100968.66;;;27.87;41.81
12636;BME280;6383;50.830;7.210;2022-07-24T11:47:09;100969.06;;;27.89;41.59
12636;BME280;6383;50.830;7.210;2022-07-24T11:49:44;100965.81;;;27.90;41.84
12636;BME280;6383;50.830;7.210;2022-07-24T11:52:18;100965.41;;;27.92;41.94
12636;BME280;6383;50.830;7.210;2022-07-24T11:54:47;100965.00;;;27.97;42.58
12636;BME280;6383;50.830;7.210;2022-07-24T11:57:21;100966.56;;;28.01;42.71
12636;BME280;6383;50.830;7.210;2022-07-24T11:59:50;100956.94;;;28.06;42.88
12636;BME280;6383;50.830;7.210;2022-07-24T12:02:19;100952.91;;;28.11;41.33
12636;BME280;6383;50.830;7.210;2022-07-24T12:04:47;100942.09;;;28.13;40.42
12636;BME280;6383;50.830;7.210;2022-07-24T12:07:19;100946.88;;;28.16;42.00
12636;BME280;6383;50.830;7.210;2022-07-24T12:09:49;100944.03;;;28.23;40.61
12636;BME280;6383;50.830;7.210;2022-07-24T12:12:22;100942.81;;;28.31;39.70
12636;BME280;6383;50.830;7.210;2022-07-24T12:14:52;100941.13;;;28.37;39.40
12636;BME280;6383;50.830;7.210;2022-07-24T12:17:20;100937.50;;;28.43;38.50
12636;BME280;6383;50.830;7.210;2022-07-24T12:19:53;100930.28;;;28.46;39.61
12636;BME280;6383;50.830;7.210;2022-07-24T12:22:25;100934.25;;;28.49;38.90
12636;BME280;6383;50.830;7.210;2022-07-24T12:24:56;100930.19;;;28.53;38.43
12636;BME280;6383;50.830;7.210;2022-07-24T12:27:36;100937.38;;;28.54;38.94
12636;BME280;6383;50.830;7.210;2022-07-24T12:30:17;100928.19;;;28.54;39.24
12636;BME280;6383;50.830;7.210;2022-07-24T12:32:57;100923.38;;;28.54;38.71
12636;BME280;6383;50.830;7.210;2022-07-24T12:35:27;100914.53;;;28.59;37.56
12636;BME280;6383;50.830;7.210;2022-07-24T12:37:58;100914.88;;;28.65;39.20
12636;BME280;6383;50.830;7.210;2022-07-24T12:40:31;100907.22;;;28.69;38.05
12636;BME280;6383;50.830;7.210;2022-07-24T12:43:01;100899.22;;;28.71;39.79
12636;BME280;6383;50.830;7.210;2022-07-24T12:45:29;100891.56;;;28.75;38.05
12636;BME280;6383;50.830;7.210;2022-07-24T12:48:10;100899.53;;;28.80;38.51
12636;BME280;6383;50.830;7.210;2022-07-24T12:50:38;100895.81;;;28.94;37.97
12636;BME280;6383;50.830;7.210;2022-07-24T12:53:07;100886.88;;;29.02;38.71
12636;BME280;6383;50.830;7.210;2022-07-24T12:55:37;100890.03;;;29.08;38.48
12636;BME280;6383;50.830;7.210;2022-07-24T12:58:06;100898.75;;;29.13;38.10
12636;BME280;6383;50.830;7.210;2022-07-24T13:00:33;100892.72;;;29.15;37.17
12636;BME280;6383;50.830;7.210;2022-07-24T13:03:01;100886.66;;;29.20;38.63
12636;BME280;6383;50.830;7.210;2022-07-24T13:05:37;100882.66;;;29.21;37.63
12636;BME280;6383;50.830;7.210;2022-07-24T13:08:07;100877.34;;;29.27;37.91
12636;BME280;6383;50.830;7.210;2022-07-24T13:10:34;100877.31;;;29.30;38.31
12636;BME280;6383;50.830;7.210;2022-07-24T13:13:03;100864.03;;;29.34;37.48
12636;BME280;6383;50.830;7.210;2022-07-24T13:15:31;100869.19;;;29.39;38.09
12636;BME280;6383;50.830;7.210;2022-07-24T13:17:58;100861.13;;;29.45;37.74